sensor_id;sensor_type;location;lat;lon;timestamp;P1;durP1;ratioP1;P2;durP2;ratioP2
20449;SDS011;10384;51.940;8.432;2022-10-17T00:00:46;3.07;;;2.10;;
20449;SDS011;10384;51.940;8.432;2022-10-17T00:03:12;4.50;;;3.17;;
20449;SDS011;10384;51.940;8.432;2022-10-17T00:05:39;6.47;;;2.40;;
20449;SDS011;10384;51.940;8.432;2022-10-17T00:08:05;7.07;;;2.60;;
20449;SDS011;10384;51.940;8.432;2022-10-17T00:10:31;3.97;;;2.47;;
20449;SDS011;10384;51.940;8.432;2022-10-17T00:12:57;3.33;;;2.20;;
20449;SDS011;10384;51.940;8.432;2022-10-17T00:15:23;5.37;;;2.80;;
20449;SDS011;10384;51.940;8.432;2022-10-17T00:17:49;6.17;;;3.37;;
20449;SDS011;10384;51.940;8.432;2022-10-17T00:20:15;4.50;;;3.10;;
20449;SDS011;10384;51.940;8.432;2022-10-17T00:22:41;4.87;;;3.10;;
20449;SDS011;10384;51.940;8.432;2022-10-17T00:25:07;5.23;;;3.00;;
20449;SDS011;10384;51.940;8.432;2022-10-17T00:27:34;5.93;;;3.00;;
20449;SDS011;10384;51.940;8.432;2022-10-17T00:30:00;4.70;;;2.67;;
20449;SDS011;10384;51.940;8.432;2022-10-17T00:32:26;6.40;;;2.80;;
20449;SDS011;10384;51.940;8.432;2022-10-17T00:34:52;6.00;;;3.10;;
20449;SDS011;10384;51.940;8.432;2022-10-17T00:37:18;5.13;;;3.03;;
20449;SDS011;10384;51.940;8.432;2022-10-17T00:39:44;5.20;;;2.90;;
20449;SDS011;10384;51.940;8.432;2022-10-17T00:42:13;6.47;;;2.90;;
20449;SDS011;10384;51.940;8.432;2022-10-17T00:47:10;10.30;;;4.00;;
20449;SDS011;10384;51.940;8.432;2022-10-17T00:49:38;8.10;;;3.13;;
20449;SDS011;10384;51.940;8.432;2022-10-17T00:52:05;7.60;;;3.10;;
20449;SDS011;10384;51.940;8.432;2022-10-17T00:54:33;3.97;;;2.70;;
20449;SDS011;10384;51.940;8.432;2022-10-17T00:56:59;7.00;;;3.83;;
20449;SDS011;10384;51.940;8.432;2022-10-17T00:59:26;6.70;;;3.53;;
20449;SDS011;10384;51.940;8.432;2022-10-17T01:01:56;7.40;;;3.47;;
20449;SDS011;10384;51.940;8.432;2022-10-17T01:04:24;8.70;;;3.47;;
20449;SDS011;10384;51.940;8.432;2022-10-17T01:06:50;4.50;;;3.00;;
20449;SDS011;10384;51.940;8.432;2022-10-17T01:09:16;9.57;;;3.67;;
20449;SDS011;10384;51.940;8.432;2022-10-17T01:11:49;6.30;;;3.57;;
20449;SDS011;10384;51.940;8.432;2022-10-17T01:14:40;6.73;;;3.30;;
20449;SDS011;10384;51.940;8.432;2022-10-17T01:17:07;6.60;;;3.50;;
20449;SDS011;10384;51.940;8.432;2022-10-17T01:22:27;5.47;;;3.23;;
20449;SDS011;10384;51.940;8.432;2022-10-17T01:32:53;4.73;;;3.00;;
20449;SDS011;10384;51.940;8.432;2022-10-17T01:35:22;5.67;;;3.27;;
20449;SDS011;10384;51.940;8.432;2022-10-17T01:38:05;7.93;;;3.90;;
20449;SDS011;10384;51.940;8.432;2022-10-17T01:43:14;8.00;;;3.67;;
20449;SDS011;10384;51.940;8.432;2022-10-17T01:45:42;6.17;;;3.60;;
20449;SDS011;10384;51.940;8.432;2022-10-17T01:48:13;7.33;;;3.63;;
20449;SDS011;10384;51.940;8.432;2022-10-17T01:50:42;6.23;;;3.77;;
20449;SDS011;10384;51.940;8.432;2022-10-17T01:53:14;6.27;;;3.40;;
20449;SDS011;10384;51.940;8.432;2022-10-17T01:55:41;5.73;;;3.83;;
20449;SDS011;10384;51.940;8.432;2022-10-17T01:58:10;5.53;;;3.40;;
20449;SDS011;10384;51.940;8.432;2022-10-17T02:00:37;6.83;;;3.90;;
20449;SDS011;10384;51.940;8.432;2022-10-17T02:03:05;5.30;;;3.47;;
20449;SDS011;10384;51.940;8.432;2022-10-17T02:05:35;5.90;;;3.30;;
20449;SDS011;10384;51.940;8.432;2022-10-17T02:08:02;6.53;;;3.73;;
20449;SDS011;10384;51.940;8.432;2022-10-17T02:18:31;6.47;;;3.87;;
20449;SDS011;10384;51.940;8.432;2022-10-17T02:21:08;5.57;;;3.40;;
20449;SDS011;10384;51.940;8.432;2022-10-17T02:29:24;6.13;;;3.57;;
20449;SDS011;10384;51.940;8.432;2022-10-17T02:31:57;7.47;;;3.50;;
20449;SDS011;10384;51.940;8.432;2022-10-17T02:34:31;6.07;;;3.97;;
20449;SDS011;10384;51.940;8.432;2022-10-17T02:36:59;6.40;;;3.90;;
20449;SDS011;10384;51.940;8.432;2022-10-17T02:39:27;7.43;;;4.30;;
20449;SDS011;10384;51.940;8.432;2022-10-17T02:41:54;5.13;;;3.23;;
20449;SDS011;10384;51.940;8.432;2022-10-17T02:44:22;6.80;;;3.83;;
20449;SDS011;10384;51.940;8.432;2022-10-17T02:46:51;5.67;;;3.33;;
20449;SDS011;10384;51.940;8.432;2022-10-17T02:49:24;8.10;;;3.97;;
20449;SDS011;10384;51.940;8.432;2022-10-17T02:54:19;7.80;;;4.43;;
20449;SDS011;10384;51.940;8.432;2022-10-17T02:56:52;5.57;;;3.67;;
20449;SDS011;10384;51.940;8.432;2022-10-17T02:59:20;6.43;;;4.23;;
20449;SDS011;10384;51.940;8.432;2022-10-17T03:01:48;6.37;;;4.20;;
20449;SDS011;10384;51.940;8.432;2022-10-17T03:04:15;6.30;;;3.50;;
20449;SDS011;10384;51.940;8.432;2022-10-17T03:06:42;6.73;;;3.83;;
20449;SDS011;10384;51.940;8.432;2022-10-17T03:09:09;6.57;;;3.77;;
20449;SDS011;10384;51.940;8.432;2022-10-17T03:11:35;9.30;;;4.47;;
20449;SDS011;10384;51.940;8.432;2022-10-17T03:14:01;8.30;;;4.10;;
20449;SDS011;10384;51.940;8.432;2022-10-17T03:16:27;6.50;;;3.77;;
20449;SDS011;10384;51.940;8.432;2022-10-17T03:18:53;9.87;;;4.60;;
20449;SDS011;10384;51.940;8.432;2022-10-17T03:21:19;7.77;;;4.20;;
20449;SDS011;10384;51.940;8.432;2022-10-17T03:23:45;9.33;;;4.17;;
20449;SDS011;10384;51.940;8.432;2022-10-17T03:26:11;7.50;;;4.00;;
20449;SDS011;10384;51.940;8.432;2022-10-17T03:28:37;7.77;;;4.23;;
20449;SDS011;10384;51.940;8.432;2022-10-17T03:31:07;7.87;;;4.67;;
20449;SDS011;10384;51.940;8.432;2022-10-17T03:33:33;8.87;;;4.47;;
20449;SDS011;10384;51.940;8.432;2022-10-17T03:35:59;7.27;;;4.10;;
20449;SDS011;10384;51.940;8.432;2022-10-17T03:38:24;9.80;;;4.90;;
20449;SDS011;10384;51.940;8.432;2022-10-17T03:40:54;12.10;;;4.70;;
20449;SDS011;10384;51.940;8.432;2022-10-17T03:43:20;7.17;;;4.27;;
20449;SDS011;10384;51.940;8.432;2022-10-17T03:45:46;7.27;;;4.37;;
20449;SDS011;10384;51.940;8.432;2022-10-17T03:48:12;6.17;;;3.90;;
20449;SDS011;10384;51.940;8.432;2022-10-17T03:50:37;6.80;;;3.87;;
20449;SDS011;10384;51.940;8.432;2022-10-17T03:53:03;5.97;;;3.63;;
20449;SDS011;10384;51.940;8.432;2022-10-17T03:55:29;6.83;;;3.90;;
20449;SDS011;10384;51.940;8.432;2022-10-17T03:57:55;6.93;;;4.13;;
20449;SDS011;10384;51.940;8.432;2022-10-17T04:00:21;9.43;;;4.80;;
20449;SDS011;10384;51.940;8.432;2022-10-17T04:02:47;7.87;;;4.53;;
20449;SDS011;10384;51.940;8.432;2022-10-17T04:05:13;7.97;;;4.67;;
20449;SDS011;10384;51.940;8.432;2022-10-17T04:07:39;9.30;;;4.07;;
20449;SDS011;10384;51.940;8.432;2022-10-17T04:10:05;7.70;;;3.93;;
20449;SDS011;10384;51.940;8.432;2022-10-17T04:12:31;6.93;;;4.30;;
20449;SDS011;10384;51.940;8.432;2022-10-17T04:14:57;6.53;;;3.90;;
20449;SDS011;10384;51.940;8.432;2022-10-17T04:17:23;8.03;;;3.90;;
20449;SDS011;10384;51.940;8.432;2022-10-17T04:19:49;8.00;;;4.37;;
20449;SDS011;10384;51.940;8.432;2022-10-17T04:22:15;6.87;;;4.37;;
20449;SDS011;10384;51.940;8.432;2022-10-17T04:24:41;9.90;;;4.47;;
20449;SDS011;10384;51.940;8.432;2022-10-17T04:27:08;8.30;;;4.30;;
20449;SDS011;10384;51.940;8.432;2022-10-17T04:29:34;8.23;;;4.70;;
20449;SDS011;10384;51.940;8.432;2022-10-17T04:32:00;7.93;;;4.00;;
20449;SDS011;10384;51.940;8.432;2022-10-17T04:34:26;6.87;;;4.20;;
20449;SDS011;10384;51.940;8.432;2022-10-17T04:36:52;9.93;;;4.67;;
20449;SDS011;10384;51.940;8.432;2022-10-17T04:39:18;6.37;;;3.80;;
20449;SDS011;10384;51.940;8.432;2022-10-17T04:41:44;7.80;;;4.13;;
20449;SDS011;10384;51.940;8.432;2022-10-17T04:44:10;9.80;;;4.30;;
20449;SDS011;10384;51.940;8.432;2022-10-17T04:46:36;7.40;;;4.50;;
20449;SDS011;10384;51.940;8.432;2022-10-17T04:49:02;7.53;;;3.80;;
20449;SDS011;10384;51.940;8.432;2022-10-17T04:51:28;8.30;;;4.20;;
20449;SDS011;10384;51.940;8.432;2022-10-17T04:53:54;9.60;;;3.97;;
20449;SDS011;10384;51.940;8.432;2022-10-17T04:56:21;7.63;;;4.30;;
20449;SDS011;10384;51.940;8.432;2022-10-17T04:58:47;8.80;;;4.70;;
20449;SDS011;10384;51.940;8.432;2022-10-17T05:01:18;9.13;;;4.40;;
20449;SDS011;10384;51.940;8.432;2022-10-17T05:03:44;10.20;;;4.07;;
20449;SDS011;10384;51.940;8.432;2022-10-17T05:06:14;8.53;;;4.50;;
20449;SDS011;10384;51.940;8.432;2022-10-17T05:08:41;9.13;;;4.90;;
20449;SDS011;10384;51.940;8.432;2022-10-17T05:11:20;7.87;;;4.20;;
20449;SDS011;10384;51.940;8.432;2022-10-17T05:13:53;8.57;;;4.23;;
20449;SDS011;10384;51.940;8.432;2022-10-17T05:16:20;8.23;;;4.60;;
20449;SDS011;10384;51.940;8.432;2022-10-17T05:18:47;9.83;;;4.80;;
20449;SDS011;10384;51.940;8.432;2022-10-17T05:21:14;8.30;;;4.33;;
20449;SDS011;10384;51.940;8.432;2022-10-17T05:23:39;7.87;;;4.40;;
20449;SDS011;10384;51.940;8.432;2022-10-17T05:26:05;9.07;;;4.57;;
20449;SDS011;10384;51.940;8.432;2022-10-17T05:28:32;10.00;;;4.63;;
20449;SDS011;10384;51.940;8.432;2022-10-17T05:31:05;8.07;;;4.23;;
20449;SDS011;10384;51.940;8.432;2022-10-17T05:33:31;7.73;;;4.23;;
20449;SDS011;10384;51.940;8.432;2022-10-17T05:35:58;8.87;;;4.50;;
20449;SDS011;10384;51.940;8.432;2022-10-17T05:38:24;9.77;;;4.13;;
20449;SDS011;10384;51.940;8.432;2022-10-17T05:40:50;7.53;;;4.00;;
20449;SDS011;10384;51.940;8.432;2022-10-17T05:43:16;7.70;;;4.20;;
20449;SDS011;10384;51.940;8.432;2022-10-17T05:45:42;7.77;;;4.40;;
20449;SDS011;10384;51.940;8.432;2022-10-17T05:48:08;8.00;;;4.30;;
20449;SDS011;10384;51.940;8.432;2022-10-17T05:50:34;5.97;;;3.77;;
20449;SDS011;10384;51.940;8.432;2022-10-17T05:53:00;8.53;;;4.20;;
20449;SDS011;10384;51.940;8.432;2022-10-17T05:55:27;7.00;;;3.90;;
20449;SDS011;10384;51.940;8.432;2022-10-17T05:57:53;7.60;;;3.90;;
20449;SDS011;10384;51.940;8.432;2022-10-17T06:00:19;8.20;;;4.30;;
20449;SDS011;10384;51.940;8.432;2022-10-17T06:02:46;6.97;;;4.17;;
20449;SDS011;10384;51.940;8.432;2022-10-17T06:05:12;7.63;;;3.93;;
20449;SDS011;10384;51.940;8.432;2022-10-17T06:07:38;7.03;;;4.43;;
20449;SDS011;10384;51.940;8.432;2022-10-17T06:10:05;6.73;;;3.87;;
20449;SDS011;10384;51.940;8.432;2022-10-17T06:12:31;11.50;;;5.60;;
20449;SDS011;10384;51.940;8.432;2022-10-17T06:14:57;8.60;;;4.67;;
20449;SDS011;10384;51.940;8.432;2022-10-17T06:17:23;7.53;;;3.87;;
20449;SDS011;10384;51.940;8.432;2022-10-17T06:19:49;8.17;;;4.27;;
20449;SDS011;10384;51.940;8.432;2022-10-17T06:22:15;8.77;;;4.00;;
20449;SDS011;10384;51.940;8.432;2022-10-17T06:24:41;8.47;;;4.30;;
20449;SDS011;10384;51.940;8.432;2022-10-17T06:27:07;7.77;;;4.30;;
20449;SDS011;10384;51.940;8.432;2022-10-17T06:29:33;8.47;;;4.20;;
20449;SDS011;10384;51.940;8.432;2022-10-17T06:31:59;8.57;;;4.20;;
20449;SDS011;10384;51.940;8.432;2022-10-17T06:34:25;8.13;;;4.20;;
20449;SDS011;10384;51.940;8.432;2022-10-17T06:36:51;8.37;;;4.73;;
20449;SDS011;10384;51.940;8.432;2022-10-17T06:39:17;6.40;;;3.70;;
20449;SDS011;10384;51.940;8.432;2022-10-17T06:41:43;7.23;;;4.27;;
20449;SDS011;10384;51.940;8.432;2022-10-17T06:44:10;6.90;;;4.17;;
20449;SDS011;10384;51.940;8.432;2022-10-17T06:46:37;9.83;;;4.13;;
20449;SDS011;10384;51.940;8.432;2022-10-17T06:49:03;7.90;;;4.20;;
20449;SDS011;10384;51.940;8.432;2022-10-17T06:51:30;7.03;;;4.00;;
20449;SDS011;10384;51.940;8.432;2022-10-17T06:53:56;10.80;;;4.20;;
20449;SDS011;10384;51.940;8.432;2022-10-17T06:56:22;8.90;;;4.20;;
20449;SDS011;10384;51.940;8.432;2022-10-17T06:58:48;9.13;;;4.37;;
20449;SDS011;10384;51.940;8.432;2022-10-17T07:01:15;7.40;;;4.37;;
20449;SDS011;10384;51.940;8.432;2022-10-17T07:03:41;7.20;;;4.03;;
20449;SDS011;10384;51.940;8.432;2022-10-17T07:06:08;6.43;;;3.93;;
20449;SDS011;10384;51.940;8.432;2022-10-17T07:08:37;7.83;;;4.47;;
20449;SDS011;10384;51.940;8.432;2022-10-17T07:11:14;6.27;;;4.23;;
20449;SDS011;10384;51.940;8.432;2022-10-17T07:13:40;9.07;;;4.33;;
20449;SDS011;10384;51.940;8.432;2022-10-17T07:16:06;5.90;;;3.97;;
20449;SDS011;10384;51.940;8.432;2022-10-17T07:18:32;8.10;;;3.93;;
20449;SDS011;10384;51.940;8.432;2022-10-17T07:20:58;7.87;;;4.20;;
20449;SDS011;10384;51.940;8.432;2022-10-17T07:23:25;9.17;;;3.80;;
20449;SDS011;10384;51.940;8.432;2022-10-17T07:25:51;7.03;;;3.70;;
20449;SDS011;10384;51.940;8.432;2022-10-17T07:28:17;9.00;;;4.23;;
20449;SDS011;10384;51.940;8.432;2022-10-17T07:30:43;6.70;;;3.60;;
20449;SDS011;10384;51.940;8.432;2022-10-17T07:33:10;9.50;;;3.83;;
20449;SDS011;10384;51.940;8.432;2022-10-17T07:35:36;9.70;;;4.17;;
20449;SDS011;10384;51.940;8.432;2022-10-17T07:38:05;7.53;;;4.17;;
20449;SDS011;10384;51.940;8.432;2022-10-17T07:40:31;6.47;;;3.73;;
20449;SDS011;10384;51.940;8.432;2022-10-17T07:42:57;6.20;;;3.73;;
20449;SDS011;10384;51.940;8.432;2022-10-17T07:45:23;11.63;;;4.33;;
20449;SDS011;10384;51.940;8.432;2022-10-17T07:47:54;7.37;;;3.93;;
20449;SDS011;10384;51.940;8.432;2022-10-17T07:50:20;9.23;;;4.77;;
20449;SDS011;10384;51.940;8.432;2022-10-17T07:52:46;8.10;;;4.30;;
20449;SDS011;10384;51.940;8.432;2022-10-17T07:55:12;9.73;;;4.20;;
20449;SDS011;10384;51.940;8.432;2022-10-17T07:57:38;7.27;;;4.10;;
20449;SDS011;10384;51.940;8.432;2022-10-17T08:00:05;6.53;;;3.97;;
20449;SDS011;10384;51.940;8.432;2022-10-17T08:02:31;7.77;;;4.07;;
20449;SDS011;10384;51.940;8.432;2022-10-17T08:04:57;9.17;;;4.17;;
20449;SDS011;10384;51.940;8.432;2022-10-17T08:07:23;9.07;;;4.23;;
20449;SDS011;10384;51.940;8.432;2022-10-17T08:09:49;8.07;;;4.00;;
20449;SDS011;10384;51.940;8.432;2022-10-17T08:12:15;8.53;;;3.90;;
20449;SDS011;10384;51.940;8.432;2022-10-17T08:14:41;9.50;;;4.00;;
20449;SDS011;10384;51.940;8.432;2022-10-17T08:17:07;5.57;;;3.47;;
20449;SDS011;10384;51.940;8.432;2022-10-17T08:19:36;7.27;;;3.50;;
20449;SDS011;10384;51.940;8.432;2022-10-17T08:22:02;7.87;;;4.37;;
20449;SDS011;10384;51.940;8.432;2022-10-17T08:24:28;7.47;;;3.83;;
20449;SDS011;10384;51.940;8.432;2022-10-17T08:26:54;6.30;;;3.80;;
20449;SDS011;10384;51.940;8.432;2022-10-17T08:29:22;5.97;;;3.57;;
20449;SDS011;10384;51.940;8.432;2022-10-17T08:31:48;9.67;;;3.90;;
20449;SDS011;10384;51.940;8.432;2022-10-17T08:34:14;6.80;;;3.60;;
20449;SDS011;10384;51.940;8.432;2022-10-17T08:36:40;6.87;;;3.80;;
20449;SDS011;10384;51.940;8.432;2022-10-17T08:39:06;5.17;;;3.57;;
20449;SDS011;10384;51.940;8.432;2022-10-17T08:46:30;7.13;;;3.47;;
20449;SDS011;10384;51.940;8.432;2022-10-17T08:48:58;6.13;;;3.97;;
20449;SDS011;10384;51.940;8.432;2022-10-17T08:51:30;7.77;;;3.60;;
20449;SDS011;10384;51.940;8.432;2022-10-17T08:54:08;8.43;;;3.80;;
20449;SDS011;10384;51.940;8.432;2022-10-17T08:56:38;6.17;;;3.03;;
20449;SDS011;10384;51.940;8.432;2022-10-17T08:59:09;5.50;;;3.57;;
20449;SDS011;10384;51.940;8.432;2022-10-17T09:01:43;6.50;;;3.53;;
20449;SDS011;10384;51.940;8.432;2022-10-17T09:07:07;7.83;;;3.40;;
20449;SDS011;10384;51.940;8.432;2022-10-17T09:12:12;7.57;;;3.43;;
20449;SDS011;10384;51.940;8.432;2022-10-17T09:22:27;5.47;;;3.33;;
20449;SDS011;10384;51.940;8.432;2022-10-17T09:24:56;4.57;;;2.93;;
20449;SDS011;10384;51.940;8.432;2022-10-17T09:27:40;5.77;;;3.30;;
20449;SDS011;10384;51.940;8.432;2022-10-17T09:30:14;4.83;;;3.10;;
20449;SDS011;10384;51.940;8.432;2022-10-17T09:32:41;5.83;;;3.07;;
20449;SDS011;10384;51.940;8.432;2022-10-17T09:35:11;4.33;;;2.90;;
20449;SDS011;10384;51.940;8.432;2022-10-17T09:37:38;3.70;;;2.67;;
20449;SDS011;10384;51.940;8.432;2022-10-17T09:40:04;8.73;;;3.10;;
20449;SDS011;10384;51.940;8.432;2022-10-17T09:42:32;6.13;;;2.93;;
20449;SDS011;10384;51.940;8.432;2022-10-17T09:47:30;4.20;;;2.73;;
20449;SDS011;10384;51.940;8.432;2022-10-17T09:49:59;6.30;;;3.10;;
20449;SDS011;10384;51.940;8.432;2022-10-17T09:52:27;4.87;;;2.77;;
20449;SDS011;10384;51.940;8.432;2022-10-17T09:54:58;5.60;;;3.60;;
20449;SDS011;10384;51.940;8.432;2022-10-17T09:57:26;6.07;;;3.27;;
20449;SDS011;10384;51.940;8.432;2022-10-17T09:59:59;4.90;;;3.20;;
20449;SDS011;10384;51.940;8.432;2022-10-17T10:02:25;4.57;;;2.97;;
20449;SDS011;10384;51.940;8.432;2022-10-17T10:04:56;5.37;;;3.10;;
20449;SDS011;10384;51.940;8.432;2022-10-17T10:07:23;5.83;;;3.13;;
20449;SDS011;10384;51.940;8.432;2022-10-17T10:09:49;6.40;;;3.07;;
20449;SDS011;10384;51.940;8.432;2022-10-17T10:12:26;4.93;;;3.00;;
20449;SDS011;10384;51.940;8.432;2022-10-17T10:14:52;5.03;;;3.07;;
20449;SDS011;10384;51.940;8.432;2022-10-17T10:19:53;5.20;;;2.93;;
20449;SDS011;10384;51.940;8.432;2022-10-17T10:22:20;6.13;;;3.03;;
20449;SDS011;10384;51.940;8.432;2022-10-17T10:27:34;4.27;;;2.70;;
20449;SDS011;10384;51.940;8.432;2022-10-17T10:30:00;4.80;;;2.80;;
20449;SDS011;10384;51.940;8.432;2022-10-17T10:32:33;5.13;;;2.90;;
20449;SDS011;10384;51.940;8.432;2022-10-17T10:38:00;5.07;;;2.80;;
20449;SDS011;10384;51.940;8.432;2022-10-17T10:40:30;7.07;;;2.73;;
20449;SDS011;10384;51.940;8.432;2022-10-17T10:42:58;4.97;;;2.47;;
20449;SDS011;10384;51.940;8.432;2022-10-17T10:48:00;4.30;;;2.97;;
20449;SDS011;10384;51.940;8.432;2022-10-17T10:55:40;7.73;;;3.40;;
20449;SDS011;10384;51.940;8.432;2022-10-17T10:58:19;7.77;;;3.40;;
20449;SDS011;10384;51.940;8.432;2022-10-17T11:00:46;6.13;;;3.33;;
20449;SDS011;10384;51.940;8.432;2022-10-17T11:03:18;7.20;;;3.80;;
20449;SDS011;10384;51.940;8.432;2022-10-17T11:05:50;6.30;;;2.93;;
20449;SDS011;10384;51.940;8.432;2022-10-17T11:08:34;4.03;;;2.87;;
20449;SDS011;10384;51.940;8.432;2022-10-17T11:11:18;7.33;;;2.67;;
20449;SDS011;10384;51.940;8.432;2022-10-17T11:13:50;6.03;;;3.03;;
20449;SDS011;10384;51.940;8.432;2022-10-17T11:18:58;5.50;;;2.80;;
20449;SDS011;10384;51.940;8.432;2022-10-17T11:21:44;6.10;;;2.77;;
20449;SDS011;10384;51.940;8.432;2022-10-17T11:24:14;5.90;;;2.57;;
20449;SDS011;10384;51.940;8.432;2022-10-17T11:26:44;4.33;;;2.63;;
20449;SDS011;10384;51.940;8.432;2022-10-17T11:29:11;5.50;;;2.60;;
20449;SDS011;10384;51.940;8.432;2022-10-17T11:31:38;5.17;;;2.87;;
20449;SDS011;10384;51.940;8.432;2022-10-17T11:34:11;3.23;;;2.53;;
20449;SDS011;10384;51.940;8.432;2022-10-17T11:36:43;5.80;;;2.97;;
20449;SDS011;10384;51.940;8.432;2022-10-17T11:39:18;4.97;;;2.70;;
20449;SDS011;10384;51.940;8.432;2022-10-17T11:41:50;9.03;;;2.60;;
20449;SDS011;10384;51.940;8.432;2022-10-17T11:44:34;4.63;;;2.37;;
20449;SDS011;10384;51.940;8.432;2022-10-17T11:47:03;5.47;;;2.57;;
20449;SDS011;10384;51.940;8.432;2022-10-17T11:49:31;4.30;;;2.50;;
20449;SDS011;10384;51.940;8.432;2022-10-17T11:54:38;4.90;;;2.40;;
20449;SDS011;10384;51.940;8.432;2022-10-17T12:02:38;4.77;;;2.67;;
20449;SDS011;10384;51.940;8.432;2022-10-17T12:07:43;8.57;;;2.70;;
20449;SDS011;10384;51.940;8.432;2022-10-17T12:12:51;7.13;;;2.87;;
20449;SDS011;10384;51.940;8.432;2022-10-17T12:17:53;5.07;;;3.10;;
20449;SDS011;10384;51.940;8.432;2022-10-17T12:22:49;9.17;;;2.90;;
20449;SDS011;10384;51.940;8.432;2022-10-17T12:25:36;9.20;;;2.63;;
20449;SDS011;10384;51.940;8.432;2022-10-17T12:28:10;4.80;;;2.43;;
20449;SDS011;10384;51.940;8.432;2022-10-17T12:30:48;4.23;;;2.73;;
20449;SDS011;10384;51.940;8.432;2022-10-17T12:33:18;8.73;;;2.90;;
20449;SDS011;10384;51.940;8.432;2022-10-17T12:35:50;5.20;;;2.47;;
20449;SDS011;10384;51.940;8.432;2022-10-17T12:45:47;8.07;;;2.87;;
20449;SDS011;10384;51.940;8.432;2022-10-17T12:51:16;7.27;;;3.30;;
20449;SDS011;10384;51.940;8.432;2022-10-17T12:56:13;6.07;;;3.17;;
20449;SDS011;10384;51.940;8.432;2022-10-17T12:58:46;6.30;;;2.80;;
20449;SDS011;10384;51.940;8.432;2022-10-17T13:01:15;4.33;;;2.60;;
20449;SDS011;10384;51.940;8.432;2022-10-17T13:03:42;7.03;;;3.10;;
20449;SDS011;10384;51.940;8.432;2022-10-17T13:06:18;5.77;;;2.70;;
20449;SDS011;10384;51.940;8.432;2022-10-17T13:08:46;3.83;;;2.93;;
20449;SDS011;10384;51.940;8.432;2022-10-17T13:11:13;5.57;;;2.87;;
20449;SDS011;10384;51.940;8.432;2022-10-17T13:16:32;5.27;;;2.80;;
20449;SDS011;10384;51.940;8.432;2022-10-17T13:18:59;6.47;;;2.80;;
20449;SDS011;10384;51.940;8.432;2022-10-17T13:21:25;7.20;;;3.10;;
20449;SDS011;10384;51.940;8.432;2022-10-17T13:23:52;5.13;;;2.53;;
20449;SDS011;10384;51.940;8.432;2022-10-17T13:26:22;4.23;;;2.70;;
20449;SDS011;10384;51.940;8.432;2022-10-17T13:29:12;3.80;;;2.70;;
20449;SDS011;10384;51.940;8.432;2022-10-17T13:31:36;6.30;;;2.90;;
20449;SDS011;10384;51.940;8.432;2022-10-17T13:34:04;4.47;;;2.60;;
20449;SDS011;10384;51.940;8.432;2022-10-17T13:36:30;5.20;;;2.80;;
20449;SDS011;10384;51.940;8.432;2022-10-17T13:39:04;5.97;;;3.33;;
20449;SDS011;10384;51.940;8.432;2022-10-17T13:41:30;10.50;;;2.87;;
20449;SDS011;10384;51.940;8.432;2022-10-17T13:43:59;5.67;;;2.70;;
20449;SDS011;10384;51.940;8.432;2022-10-17T13:46:27;7.60;;;2.63;;
20449;SDS011;10384;51.940;8.432;2022-10-17T13:48:54;5.27;;;2.70;;
20449;SDS011;10384;51.940;8.432;2022-10-17T13:51:21;6.23;;;2.47;;
20449;SDS011;10384;51.940;8.432;2022-10-17T13:53:48;7.23;;;2.70;;
20449;SDS011;10384;51.940;8.432;2022-10-17T13:56:21;5.50;;;2.60;;
20449;SDS011;10384;51.940;8.432;2022-10-17T13:58:56;9.13;;;2.83;;
20449;SDS011;10384;51.940;8.432;2022-10-17T14:01:24;4.30;;;3.07;;
20449;SDS011;10384;51.940;8.432;2022-10-17T14:03:51;6.07;;;2.70;;
20449;SDS011;10384;51.940;8.432;2022-10-17T14:06:17;6.60;;;3.20;;
20449;SDS011;10384;51.940;8.432;2022-10-17T14:08:57;4.03;;;2.43;;
20449;SDS011;10384;51.940;8.432;2022-10-17T14:11:25;7.67;;;2.60;;
20449;SDS011;10384;51.940;8.432;2022-10-17T14:13:52;6.63;;;2.60;;
20449;SDS011;10384;51.940;8.432;2022-10-17T14:16:20;5.63;;;2.60;;
20449;SDS011;10384;51.940;8.432;2022-10-17T14:18:47;5.40;;;3.00;;
20449;SDS011;10384;51.940;8.432;2022-10-17T14:21:24;9.70;;;2.90;;
20449;SDS011;10384;51.940;8.432;2022-10-17T14:24:10;6.10;;;3.03;;
20449;SDS011;10384;51.940;8.432;2022-10-17T14:26:44;9.27;;;2.80;;
20449;SDS011;10384;51.940;8.432;2022-10-17T14:29:19;7.50;;;3.00;;
20449;SDS011;10384;51.940;8.432;2022-10-17T14:31:45;6.93;;;2.47;;
20449;SDS011;10384;51.940;8.432;2022-10-17T14:34:21;4.50;;;2.50;;
20449;SDS011;10384;51.940;8.432;2022-10-17T14:36:48;5.53;;;2.80;;
20449;SDS011;10384;51.940;8.432;2022-10-17T14:39:17;4.27;;;2.83;;
20449;SDS011;10384;51.940;8.432;2022-10-17T14:41:44;7.37;;;3.40;;
20449;SDS011;10384;51.940;8.432;2022-10-17T14:44:15;7.60;;;2.87;;
20449;SDS011;10384;51.940;8.432;2022-10-17T14:46:43;6.90;;;3.17;;
20449;SDS011;10384;51.940;8.432;2022-10-17T14:49:24;6.10;;;2.90;;
20449;SDS011;10384;51.940;8.432;2022-10-17T14:54:35;7.17;;;3.27;;
20449;SDS011;10384;51.940;8.432;2022-10-17T14:57:07;6.50;;;2.97;;
20449;SDS011;10384;51.940;8.432;2022-10-17T14:59:33;5.07;;;2.90;;
20449;SDS011;10384;51.940;8.432;2022-10-17T15:01:59;7.10;;;3.00;;
20449;SDS011;10384;51.940;8.432;2022-10-17T15:04:25;7.43;;;3.07;;
20449;SDS011;10384;51.940;8.432;2022-10-17T15:06:54;13.30;;;3.53;;
20449;SDS011;10384;51.940;8.432;2022-10-17T15:09:20;6.77;;;3.17;;
20449;SDS011;10384;51.940;8.432;2022-10-17T15:11:47;9.20;;;2.90;;
20449;SDS011;10384;51.940;8.432;2022-10-17T15:14:13;6.97;;;3.30;;
20449;SDS011;10384;51.940;8.432;2022-10-17T15:16:39;8.73;;;3.83;;
20449;SDS011;10384;51.940;8.432;2022-10-17T15:19:05;4.43;;;2.60;;
20449;SDS011;10384;51.940;8.432;2022-10-17T15:21:31;8.23;;;3.93;;
20449;SDS011;10384;51.940;8.432;2022-10-17T15:23:57;8.60;;;3.57;;
20449;SDS011;10384;51.940;8.432;2022-10-17T15:26:28;4.67;;;2.73;;
20449;SDS011;10384;51.940;8.432;2022-10-17T15:28:54;3.53;;;2.93;;
20449;SDS011;10384;51.940;8.432;2022-10-17T15:31:21;4.60;;;3.37;;
20449;SDS011;10384;51.940;8.432;2022-10-17T15:33:47;6.83;;;2.70;;
20449;SDS011;10384;51.940;8.432;2022-10-17T15:36:17;9.33;;;2.77;;
20449;SDS011;10384;51.940;8.432;2022-10-17T15:38:44;6.53;;;2.87;;
20449;SDS011;10384;51.940;8.432;2022-10-17T15:41:10;3.97;;;2.60;;
20449;SDS011;10384;51.940;8.432;2022-10-17T15:43:36;6.90;;;2.47;;
20449;SDS011;10384;51.940;8.432;2022-10-17T15:46:02;7.03;;;3.30;;
20449;SDS011;10384;51.940;8.432;2022-10-17T15:48:29;6.20;;;2.67;;
20449;SDS011;10384;51.940;8.432;2022-10-17T15:50:56;5.87;;;2.47;;
20449;SDS011;10384;51.940;8.432;2022-10-17T15:53:22;5.10;;;2.77;;
20449;SDS011;10384;51.940;8.432;2022-10-17T15:55:48;4.97;;;2.90;;
20449;SDS011;10384;51.940;8.432;2022-10-17T15:58:15;4.90;;;2.47;;
20449;SDS011;10384;51.940;8.432;2022-10-17T16:00:41;4.10;;;2.53;;
20449;SDS011;10384;51.940;8.432;2022-10-17T16:03:08;5.03;;;2.80;;
20449;SDS011;10384;51.940;8.432;2022-10-17T16:05:34;4.33;;;2.70;;
20449;SDS011;10384;51.940;8.432;2022-10-17T16:07:59;10.63;;;2.70;;
20449;SDS011;10384;51.940;8.432;2022-10-17T16:10:25;5.03;;;2.93;;
20449;SDS011;10384;51.940;8.432;2022-10-17T16:12:52;6.40;;;3.10;;
20449;SDS011;10384;51.940;8.432;2022-10-17T16:15:22;5.97;;;2.77;;
20449;SDS011;10384;51.940;8.432;2022-10-17T16:17:49;4.00;;;2.03;;
20449;SDS011;10384;51.940;8.432;2022-10-17T16:20:15;8.07;;;2.77;;
20449;SDS011;10384;51.940;8.432;2022-10-17T16:22:42;8.20;;;2.80;;
20449;SDS011;10384;51.940;8.432;2022-10-17T16:25:22;4.13;;;2.57;;
20449;SDS011;10384;51.940;8.432;2022-10-17T16:27:50;6.00;;;3.03;;
20449;SDS011;10384;51.940;8.432;2022-10-17T16:30:16;3.57;;;2.40;;
20449;SDS011;10384;51.940;8.432;2022-10-17T16:32:43;7.73;;;2.70;;
20449;SDS011;10384;51.940;8.432;2022-10-17T16:35:10;5.53;;;2.83;;
20449;SDS011;10384;51.940;8.432;2022-10-17T16:37:39;4.93;;;2.80;;
20449;SDS011;10384;51.940;8.432;2022-10-17T16:40:05;6.10;;;3.17;;
20449;SDS011;10384;51.940;8.432;2022-10-17T16:42:31;6.30;;;3.60;;